Terminal Aerodrome Forecast
Issued by NWS

Home | Current Version | Previous Version | Graphics & Text | Print | Product List | Glossary On
Versions: 1 2 3 4 5 6 7 8 9 10 11 12 13 14 15 16 17 18 19 20 21 22 23 24 25 26 27 28 29 30 31 32 33 34
728
FTUS42 KMHX 232239 AAB
TAFISO
TAF AMD
KISO 232239Z 2323/2418 20010KT 6SM -SHRA SCT007 OVC020
      TEMPO 2323/2324 2SM RA BKN007
     FM240000 20008KT 3SM SHRA SCT007 OVC015
     FM240300 21009KT 4SM SHRA OVC008 WS020/18040KT
     FM240600 23006KT P6SM VCSH OVC008 WS020/18040KT
     FM240900 17005KT P6SM OVC008
     FM241500 13005KT P6SM BKN025
      AMD LTD TO CLD VIS AND WIND=

USA.gov is the U.S. government's official web portal to all federal, state and local government web resources and services.